ADDS METAR Data INFO
IDs: Format: Raw Decoded Include TAF

Data at: 1812 UTC 18 Feb 2018

KAVK 181755Z AUTO 19028G37KT 10SM SCT029 14/05 A2984 RMK AO2
KAVK 181735Z AUTO 19025G32KT 10SM CLR 13/05 A2986 RMK AO2
KAVK 181715Z AUTO 18025G32KT 10SM CLR 12/04 A2987 RMK AO2
KAVK 181655Z AUTO 19028G35KT 10SM CLR 12/04 A2988 RMK AO2
KAVK 181635Z AUTO 18028G36KT 9SM CLR 11/04 A2989 RMK AO2
KAVK 181615Z AUTO 18021G28KT 10SM CLR 11/03 A2991 RMK AO2
KAVK 181555Z AUTO 18022G30KT 10SM CLR 10/03 A2992 RMK AO2
KAVK 181535Z AUTO 18023KT 10SM CLR 09/02 A2993 RMK AO2
KAVK 181515Z AUTO 18020G26KT 10SM CLR 09/02 A2994 RMK AO2
KAVK 181455Z AUTO 18020KT 10SM CLR 08/02 A2995 RMK AO2
KAVK 181435Z AUTO 19019KT 10SM CLR 07/02 A2996 RMK AO2
KAVK 181415Z AUTO 18014KT 10SM CLR 06/01 A2996 RMK AO2
KAVK 181355Z AUTO 18015KT 10SM CLR 05/01 A2996 RMK AO2
KAVK 181335Z AUTO 18015KT 10SM CLR 04/01 A2997 RMK AO2
KAVK 181315Z AUTO 18011KT 10SM CLR 01/M01 A2998 RMK AO2
KAVK 181255Z AUTO 16010KT 10SM FEW015 01/M02 A2999 RMK AO2
KAVK 181235Z AUTO 17010KT 10SM CLR 02/M02 A3000 RMK AO2
KAVK 181215Z AUTO 17011KT 10SM CLR 03/M02 A3001 RMK AO2
KAVK 181155Z AUTO 17012KT 10SM FEW014 03/M02 A3001 RMK AO2
KAVK 181135Z AUTO 16013KT 10SM FEW015 02/M03 A3001 RMK AO2
KAVK 181115Z AUTO 16010KT 10SM FEW016 01/M03 A3002 RMK AO2
KAVK 181055Z AUTO 16009KT 10SM SCT016 SCT021 SCT026 00/M03 A3003 RMK AO2
KAVK 181035Z AUTO 16009KT 10SM SCT017 SCT025 00/M03 A3003 RMK AO2
KAVK 181015Z AUTO 16010KT 10SM FEW017 M01/M05 A3004 RMK AO2
KAVK 180955Z AUTO 17008KT 10SM FEW016 FEW024 M01/M05 A3005 RMK AO2
KAVK 180935Z AUTO 17008KT 10SM FEW015 FEW024 M00/M05 A3007 RMK AO2
KAVK 180915Z AUTO 16009KT 10SM FEW016 FEW023 00/M04 A3007 RMK AO2
KAVK 180855Z AUTO 18008KT 10SM FEW016 FEW039 01/M04 A3008 RMK AO2
KAVK 180835Z AUTO 19007KT 10SM SCT016 SCT041 00/M05 A3009 RMK AO2
KAVK 180815Z AUTO 17008KT 10SM FEW016 FEW041 M00/M06 A3011 RMK AO2
KAVK 180755Z AUTO 18008KT 10SM FEW019 01/M06 A3011 RMK AO2
KAVK 180735Z AUTO 19007KT 10SM FEW019 00/M06 A3011 RMK AO2
KAVK 180715Z AUTO 19009KT 10SM CLR 01/M06 A3012 RMK AO2
KAVK 180655Z AUTO 21006KT 10SM CLR 02/M06 A3012 RMK AO2
KAVK 180635Z AUTO 15007KT 10SM CLR 00/M07 A3013 RMK AO2
KAVK 180615Z AUTO 20005KT 7SM CLR 02/M07 A3013 RMK AO2
KAVK 180555Z AUTO 21006KT 10SM CLR 02/M06 A3013 RMK AO2
KAVK 180535Z AUTO 18007KT 10SM CLR 02/M06 A3014 RMK AO2
KAVK 180515Z AUTO 17009KT 10SM CLR 02/M06 A3014 RMK AO2
KAVK 180455Z AUTO 17008KT 10SM FEW049 01/M09 A3015 RMK AO2
KAVK 180435Z AUTO 17008KT 10SM FEW016 FEW038 SCT050 02/M09 A3015 RMK AO2
KAVK 180415Z AUTO 17010KT 10SM CLR 03/M09 A3016 RMK AO2
KAVK 180355Z AUTO 16010KT 10SM CLR 05/M08 A3016 RMK AO2
KAVK 180335Z AUTO 15011KT 10SM FEW016 FEW045 05/M10 A3015 RMK AO2
KAVK 180315Z AUTO 14009G14KT 10SM SCT018 SCT040 07/M11 A3016 RMK AO2
KAVK 180255Z AUTO 12010KT 10SM SCT020 BKN040 BKN046 07/M11 A3016 RMK AO2
KAVK 180235Z AUTO 13008KT 10SM SCT021 SCT036 SCT045 07/M11 A3016 RMK AO2
KAVK 180215Z AUTO 13007KT 10SM SCT020 SCT025 BKN044 08/M12 A3017 RMK AO2
KAVK 180155Z AUTO 12006KT 10SM SCT020 BKN025 BKN032 09/M12 A3017 RMK AO2
KAVK 180135Z AUTO 10006KT 10SM SCT019 SCT026 SCT032 10/M13 A3017 RMK AO2
KAVK 180115Z AUTO 10004KT 10SM BKN021 BKN031 10/M13 A3017 RMK AO2
KAVK 180055Z AUTO 08004KT 10SM BKN021 BKN025 BKN031 12/M13 A3016 RMK AO2
KAVK 180035Z AUTO 07004KT 10SM FEW020 FEW029 12/M13 A3016 RMK AO2
KAVK 180015Z AUTO 06005KT 10SM CLR 13/M13 A3015 RMK AO2
KAVK 172355Z AUTO 06006KT 10SM CLR 14/M13 A3015 RMK AO2
KAVK 172335Z AUTO 06007KT 10SM CLR 15/M12 A3014 RMK AO2
KAVK 172315Z AUTO 05010KT 10SM CLR 16/M12 A3014 RMK AO2
KAVK 172255Z AUTO 02010KT 10SM CLR 16/M13 A3014 RMK AO2
KAVK 172235Z AUTO 04009KT 10SM CLR 17/M12 A3014 RMK AO2
KAVK 172215Z AUTO 03013G20KT 10SM CLR 17/M13 A3013 RMK AO2
KAVK 172155Z AUTO 03008G17KT 10SM CLR 17/M13 A3013 RMK AO2
KAVK 172135Z AUTO 02011G19KT 10SM CLR 17/M12 A3012 RMK AO2
KAVK 172115Z AUTO 04010G18KT 10SM CLR 17/M12 A3012 RMK AO2
KAVK 172055Z AUTO 01011G16KT 10SM CLR 18/M12 A3012 RMK AO2
KAVK 172035Z AUTO 02009G15KT 350V050 10SM CLR 17/M12 A3011 RMK AO2
KAVK 172015Z AUTO 01016G23KT 10SM CLR 17/M11 A3011 RMK AO2
KAVK 171955Z AUTO 36018KT 10SM CLR 17/M11 A3011 RMK AO2
KAVK 171935Z AUTO 02014G21KT 360V060 10SM CLR 17/M10 A3011 RMK AO2
KAVK 171915Z AUTO 02016KT 10SM CLR 16/M10 A3012 RMK AO2
KAVK 171855Z AUTO 34019KT 10SM CLR 16/M10 A3013 RMK AO2
KAVK 171835Z AUTO 01014G21KT 10SM CLR 16/M09 A3012 RMK AO2
KAVK 171815Z AUTO 36019KT 10SM CLR 16/M10 A3012 RMK AO2
KAVK 171755Z AUTO 35017G26KT 10SM CLR 15/M09 A3012 RMK AO2
KAVK 171735Z AUTO 36019G29KT 10SM CLR 15/M09 A3011 RMK AO2
KAVK 171715Z AUTO 35017G29KT 10SM CLR 14/M08 A3011 RMK AO2
KAVK 171655Z AUTO 01015G24KT 10SM CLR 13/M07 A3010 RMK AO2
KAVK 171635Z AUTO 01019G26KT 10SM CLR 12/M07 A3009 RMK AO2
KAVK 171615Z AUTO 35010KT 10SM CLR 10/M03 A3008 RMK AO2
KAVK 171555Z AUTO 34013KT 10SM CLR 08/M03 A3008 RMK AO2
KAVK 171535Z AUTO 34012KT 10SM CLR 07/M01 A3006 RMK AO2
KAVK 171515Z AUTO 32009KT 10SM CLR 06/01 A3005 RMK AO2
KAVK 171455Z AUTO 31008KT 10SM CLR 03/01 A3005 RMK AO2
KAVK 171435Z AUTO 30005KT 10SM CLR 01/01 A3003 RMK AO2
KAVK 171415Z AUTO 29005KT 9SM CLR 00/00 A3002 RMK AO2
KAVK 171355Z AUTO 23007KT 10SM CLR M00/M01 A3000 RMK AO2
KAVK 171335Z AUTO 22008KT 10SM CLR M00/M01 A2999 RMK AO2
KAVK 171315Z AUTO 23009KT 10SM CLR 01/M00 A2999 RMK AO2
KAVK 171255Z AUTO 22011KT 10SM FEW016 FEW027 FEW040 01/00 A2998 RMK AO2
KAVK 171235Z AUTO 21014KT 10SM SCT012 SCT027 SCT035 01/M00 A2996 RMK AO2
KAVK 171215Z AUTO 20010KT 10SM BKN012 BKN033 01/M01 A2996 RMK AO2
KAVK 171155Z AUTO 20010KT 10SM CLR 01/M01 A2995 RMK AO2
KAVK 171135Z AUTO 20011KT 10SM CLR 01/M01 A2995 RMK AO2
KAVK 171115Z AUTO 20011KT 10SM CLR 01/M01 A2994 RMK AO2
KAVK 171055Z AUTO 18010KT 10SM FEW065 01/M01 A2993 RMK AO2
KAVK 171035Z AUTO 18010KT 10SM BKN065 BKN075 02/M01 A2994 RMK AO2
KAVK 171015Z AUTO 17008KT 10SM SCT065 OVC080 02/M01 A2994 RMK AO2
KAVK 170955Z AUTO 15013KT 10SM SCT060 BKN065 OVC085 02/M02 A2993 RMK AO2
KAVK 170935Z AUTO 17014G22KT 10SM FEW018 SCT031 BKN048 02/M02 A2995 RMK AO2
KAVK 170915Z AUTO 17016KT 10SM BKN018 SCT023 OVC030 02/M02 A2997 RMK AO2
KAVK 170855Z AUTO 18012G18KT 10SM FEW021 BKN030 OVC036 02/M03 A2999 RMK AO2
KAVK 170835Z AUTO 18018KT 10SM OVC037 03/M03 A3000 RMK AO2
KAVK 170815Z AUTO 18016KT 10SM OVC039 03/M04 A3002 RMK AO2
KAVK 170755Z AUTO 17016KT 10SM OVC043 03/M04 A3001 RMK AO2
KAVK 170735Z AUTO 18014G22KT 10SM OVC045 03/M05 A3003 RMK AO2
KAVK 170715Z AUTO 18012KT 10SM FEW032 OVC049 03/M07 A3005 RMK AO2
KAVK 170655Z AUTO 19013KT 10SM FEW032 OVC050 03/M08 A3007 RMK AO2
KAVK 170635Z AUTO 17008KT 10SM OVC050 03/M08 A3007 RMK AO2
KAVK 170615Z AUTO 17011KT 10SM OVC055 03/M08 A3008 RMK AO2